Time;durP1;ratioP1;P1;durP2;ratioP2;P2;SDS_P1;SDS_P2;PMS_P1;PMS_P2;Temp;Humidity;BMP_temperature;BMP_pressure;BME280_temperature;BME280_humidity;BME280_pressure;Samples;Min_cycle;Max_cycle;Signal;HPM_P1;HPM_P2
2021/12/31 00:00:21;;;;;;;1.67;0.93;;;;;;;10.79;82.03;98700.63;2580439;28;20136;-80
2021/12/31 00:01:56;;;;;;;1.58;1.00;;;;;;;10.80;82.01;98699.72;2581191;28;20053;-80
2021/12/31 00:03:13;;;;;;;1.23;1.10;;;;;;;10.81;81.88;98706.69;2580359;28;20046;-79
2021/12/31 00:04:28;;;;;;;0.90;0.80;;;;;;;10.85;81.51;98716.19;2580973;28;20129;-80
2021/12/31 00:05:44;;;;;;;1.58;0.70;;;;;;;10.87;81.47;98716.16;2581465;28;20272;-80
2021/12/31 00:07:00;;;;;;;0.80;0.80;;;;;;;10.82;81.65;98712.78;2579044;28;20062;-82
2021/12/31 00:08:16;;;;;;;1.33;0.90;;;;;;;10.82;82.13;98708.41;2581096;28;20517;-80
2021/12/31 00:09:31;;;;;;;1.02;0.85;;;;;;;10.86;81.93;98714.44;2581142;28;20046;-80
2021/12/31 00:10:47;;;;;;;1.83;0.90;;;;;;;10.84;81.87;98708.38;2580543;28;20078;-80
2021/12/31 00:12:04;;;;;;;0.70;0.70;;;;;;;10.86;81.70;98712.66;2580235;28;20516;-79
2021/12/31 00:13:20;;;;;;;1.15;0.93;;;;;;;10.94;81.54;98709.00;2579310;28;20058;-79
2021/12/31 00:14:37;;;;;;;1.10;0.85;;;;;;;10.95;81.58;98708.09;2579770;28;20549;-80
2021/12/31 00:15:56;;;;;;;2.03;1.00;;;;;;;10.97;81.41;98704.56;2581309;28;20497;-80
2021/12/31 00:17:15;;;;;;;2.08;0.90;;;;;;;10.98;81.00;98713.25;2584644;28;20050;-80
2021/12/31 00:18:31;;;;;;;1.02;0.90;;;;;;;11.00;81.71;98711.47;2583610;28;20058;-80
2021/12/31 00:19:47;;;;;;;1.23;1.00;;;;;;;10.96;81.64;98708.03;2581468;28;20100;-80
2021/12/31 00:21:03;;;;;;;1.60;1.10;;;;;;;11.02;81.58;98707.03;2581579;28;20518;-80
2021/12/31 00:23:35;;;;;;;2.50;0.90;;;;;;;11.04;81.17;98707.88;2583324;28;20584;-80
2021/12/31 00:24:50;;;;;;;1.02;0.88;;;;;;;11.05;81.23;98700.88;2583349;28;20060;-81
2021/12/31 00:26:06;;;;;;;2.00;0.90;;;;;;;11.06;81.08;98713.06;2581048;28;20080;-80
2021/12/31 00:27:21;;;;;;;2.00;0.90;;;;;;;11.01;81.60;98697.44;2583079;28;20046;-81
2021/12/31 00:28:37;;;;;;;2.53;1.20;;;;;;;11.07;81.42;98696.44;2582150;28;20061;-80
2021/12/31 00:29:52;;;;;;;1.40;1.15;;;;;;;11.04;81.01;98691.28;2583124;28;20077;-80
2021/12/31 00:31:08;;;;;;;1.27;1.17;;;;;;;11.02;81.32;98701.78;2584361;28;20100;-80
2021/12/31 00:32:23;;;;;;;2.50;1.50;;;;;;;10.95;81.38;98697.63;2581638;28;20116;-84
2021/12/31 00:33:39;;;;;;;2.13;1.27;;;;;;;10.90;81.76;98700.34;2581495;28;20412;-81
2021/12/31 00:34:55;;;;;;;3.55;1.30;;;;;;;10.90;81.59;98705.59;2583366;28;20096;-80
2021/12/31 00:36:10;;;;;;;1.85;1.10;;;;;;;10.92;81.28;98710.81;2582414;28;20047;-80
2021/12/31 00:37:29;;;;;;;1.75;1.10;;;;;;;10.92;81.70;98709.03;2582681;28;20133;-82
2021/12/31 00:38:45;;;;;;;2.60;1.20;;;;;;;10.96;81.10;98715.91;2582633;28;20090;-79
2021/12/31 00:40:01;;;;;;;3.05;1.20;;;;;;;10.91;81.51;98703.84;2586621;28;20516;-80
2021/12/31 00:41:17;;;;;;;1.55;1.27;;;;;;;10.95;81.23;98708.09;2585671;28;20053;-79
2021/12/31 00:42:32;;;;;;;3.25;1.20;;;;;;;10.94;81.10;98701.16;2583313;28;20501;-83
2021/12/31 00:43:48;;;;;;;1.10;1.00;;;;;;;10.90;80.80;98702.97;2582131;28;20501;-79
2021/12/31 00:45:06;;;;;;;1.40;1.15;;;;;;;10.86;81.03;98699.56;2583773;28;20150;-80
2021/12/31 00:46:21;;;;;;;1.92;1.20;;;;;;;10.83;81.17;98706.66;2582354;28;20077;-81
2021/12/31 00:47:37;;;;;;;1.42;0.98;;;;;;;10.83;81.48;98701.44;2581721;28;20060;-80
2021/12/31 00:48:53;;;;;;;1.67;1.10;;;;;;;10.82;81.03;98700.56;2583146;28;20069;-80
2021/12/31 00:50:10;;;;;;;2.65;1.10;;;;;;;10.81;81.24;98704.06;2581897;28;20197;-79
2021/12/31 00:51:26;;;;;;;1.30;0.90;;;;;;;10.80;81.37;98704.09;2581287;28;20874;-79
2021/12/31 00:52:42;;;;;;;1.48;0.98;;;;;;;10.66;81.60;98709.69;2582518;28;20112;-81
2021/12/31 00:53:58;;;;;;;2.42;1.10;;;;;;;10.68;81.71;98700.03;2582945;28;20046;-80
2021/12/31 00:55:14;;;;;;;1.52;1.20;;;;;;;10.61;81.54;98699.31;2582181;28;20061;-81
2021/12/31 00:56:29;;;;;;;2.35;1.17;;;;;;;10.59;82.17;98696.72;2580542;28;20046;-80
2021/12/31 00:57:45;;;;;;;2.20;1.10;;;;;;;10.58;81.58;98702.84;2582698;28;20050;-80
2021/12/31 00:59:01;;;;;;;1.50;0.90;;;;;;;10.57;80.99;98709.00;2583445;28;20057;-82
2021/12/31 01:00:17;;;;;;;1.73;1.05;;;;;;;10.66;81.31;98707.06;2580530;28;20416;-79
2021/12/31 01:01:35;;;;;;;1.40;1.00;;;;;;;10.65;80.67;98705.34;2580837;28;20072;-79
2021/12/31 01:02:51;;;;;;;1.20;1.10;;;;;;;10.59;81.00;98706.34;2580324;28;20042;-80
2021/12/31 01:04:06;;;;;;;2.47;1.00;;;;;;;10.55;81.49;98710.78;2581919;28;20410;-79
2021/12/31 01:05:22;;;;;;;1.35;1.00;;;;;;;10.50;81.33;98702.19;2582258;28;20115;-80
2021/12/31 01:06:37;;;;;;;2.85;1.20;;;;;;;10.53;81.11;98712.59;2582559;28;20165;-80
2021/12/31 01:07:53;;;;;;;1.50;1.08;;;;;;;10.43;81.13;98708.47;2581475;28;20073;-80
2021/12/31 01:09:09;;;;;;;1.30;1.00;;;;;;;10.35;81.90;98710.38;2581305;28;20051;-80
2021/12/31 01:10:27;;;;;;;2.35;1.13;;;;;;;10.25;82.03;98713.19;2582542;28;20510;-80
2021/12/31 01:11:46;;;;;;;1.55;1.20;;;;;;;10.29;81.89;98717.44;2583037;28;20602;-80
2021/12/31 01:13:08;;;;;;;1.98;1.13;;;;;;;10.30;82.19;98713.94;2583273;28;20906;-81
2021/12/31 01:14:32;;;;;;;3.80;1.13;;;;;;;10.43;81.49;98721.53;2581382;28;20057;-84
2021/12/31 01:15:50;;;;;;;1.55;0.90;;;;;;;10.36;81.70;98715.56;2581144;28;20537;-80
2021/12/31 01:17:09;;;;;;;1.63;1.10;;;;;;;10.45;81.17;98711.91;2582669;28;20535;-80
2021/12/31 01:19:44;;;;;;;2.05;1.10;;;;;;;10.47;81.20;98714.50;2582620;28;20057;-80
2021/12/31 01:20:00;;;;;;;1.30;1.13;;;;;;;10.52;80.86;98717.84;2581423;28;20485;-80
2021/12/31 01:21:16;;;;;;;1.13;0.98;;;;;;;10.49;81.11;98718.81;2583808;28;20385;-80
2021/12/31 01:22:33;;;;;;;1.90;1.20;;;;;;;10.48;80.99;98727.56;2580576;28;20061;-80
2021/12/31 01:23:50;;;;;;;1.65;1.10;;;;;;;10.38;81.44;98719.00;2581875;28;20050;-79
2021/12/31 01:25:07;;;;;;;1.92;1.20;;;;;;;10.39;81.30;98730.34;2581262;28;20588;-80
2021/12/31 01:26:23;;;;;;;4.07;1.30;;;;;;;10.35;80.94;98731.31;2583231;28;20084;-80
2021/12/31 01:27:39;;;;;;;1.38;1.20;;;;;;;10.43;80.98;98727.66;2581083;28;20045;-79
2021/12/31 01:28:55;;;;;;;1.50;1.10;;;;;;;10.48;80.99;98718.81;2582860;28;20507;-80
2021/12/31 01:30:13;;;;;;;1.33;1.13;;;;;;;10.48;80.79;98724.94;2581828;28;20054;-79
2021/12/31 01:31:29;;;;;;;2.97;1.20;;;;;;;10.50;80.99;98717.91;2581819;28;20054;-80
2021/12/31 01:32:48;;;;;;;2.92;1.20;;;;;;;10.48;80.65;98724.94;2590530;28;20045;-80
2021/12/31 01:34:06;;;;;;;2.13;1.35;;;;;;;10.48;80.66;98724.94;2586338;28;20104;-80
2021/12/31 01:35:22;;;;;;;1.33;0.98;;;;;;;10.44;80.84;98734.59;2580983;28;20089;-80
2021/12/31 01:36:37;;;;;;;2.63;1.15;;;;;;;10.45;81.14;98728.47;2581079;28;20057;-80
2021/12/31 01:37:53;;;;;;;3.08;1.25;;;;;;;10.44;80.96;98729.38;2580641;28;20120;-79
2021/12/31 01:39:09;;;;;;;1.77;1.10;;;;;;;10.44;81.03;98733.72;2582534;28;20050;-79
2021/12/31 01:40:24;;;;;;;3.05;1.20;;;;;;;10.44;81.02;98721.53;2582684;28;20064;-79
2021/12/31 01:41:40;;;;;;;2.10;1.10;;;;;;;10.43;81.13;98729.41;2582425;28;20468;-79
2021/12/31 01:42:56;;;;;;;2.63;1.48;;;;;;;10.39;81.28;98722.50;2581641;28;20144;-80
2021/12/31 01:44:11;;;;;;;1.65;0.93;;;;;;;10.43;81.11;98718.94;2581617;28;20481;-80
2021/12/31 01:45:32;;;;;;;1.40;1.10;;;;;;;10.52;80.93;98718.72;2580289;28;20073;-81
2021/12/31 01:46:59;;;;;;;3.67;1.10;;;;;;;10.58;80.63;98725.56;2582980;28;20042;-80
2021/12/31 01:48:23;;;;;;;2.40;1.05;;;;;;;10.58;80.54;98720.34;2582159;28;20129;-82
2021/12/31 01:49:43;;;;;;;1.85;1.10;;;;;;;10.60;80.66;98718.53;2581672;28;20137;-79
2021/12/31 01:50:59;;;;;;;2.35;1.05;;;;;;;10.58;80.70;98722.97;2588838;28;20100;-80
2021/12/31 01:52:15;;;;;;;2.25;1.00;;;;;;;10.58;80.70;98718.56;2585530;28;20108;-80
2021/12/31 01:53:32;;;;;;;1.48;1.20;;;;;;;10.51;80.55;98718.75;2580718;28;20046;-80
2021/12/31 01:54:48;;;;;;;1.90;1.00;;;;;;;10.60;80.89;98729.00;2580891;28;20045;-80
2021/12/31 01:56:05;;;;;;;1.98;1.10;;;;;;;10.66;80.26;98722.78;2581909;28;20046;-79
2021/12/31 01:57:21;;;;;;;1.08;0.98;;;;;;;10.68;80.33;98719.19;2581087;28;20060;-81
2021/12/31 01:58:36;;;;;;;3.15;1.10;;;;;;;10.71;80.25;98718.28;2581761;28;20468;-80
2021/12/31 01:59:52;;;;;;;1.88;1.08;;;;;;;10.75;80.29;98717.28;2580589;28;20046;-80
2021/12/31 02:01:10;;;;;;;1.52;1.20;;;;;;;10.78;80.37;98709.38;2581477;28;20046;-80
2021/12/31 02:02:26;;;;;;;1.13;1.00;;;;;;;10.65;79.86;98715.81;2581303;28;20057;-79
2021/12/31 02:03:41;;;;;;;1.60;1.05;;;;;;;10.58;80.45;98715.94;2581101;28;20045;-80
2021/12/31 02:04:57;;;;;;;1.40;1.10;;;;;;;10.55;80.59;98720.41;2581021;28;20042;-80
2021/12/31 02:06:13;;;;;;;1.17;1.08;;;;;;;10.51;80.82;98710.91;2581412;28;20445;-79
2021/12/31 02:07:29;;;;;;;1.75;1.10;;;;;;;10.52;80.92;98716.09;2581032;28;20054;-82
2021/12/31 02:08:44;;;;;;;2.13;1.02;;;;;;;10.64;80.83;98720.19;2580206;28;20074;-79
2021/12/31 02:10:00;;;;;;;2.13;1.23;;;;;;;10.69;80.40;98722.69;2581182;28;20054;-80
2021/12/31 02:11:17;;;;;;;1.20;0.90;;;;;;;10.72;80.56;98722.63;2581633;28;20057;-81
2021/12/31 02:12:34;;;;;;;3.60;1.08;;;;;;;10.73;80.58;98722.59;2581790;28;20046;-79
2021/12/31 02:13:52;;;;;;;1.75;1.02;;;;;;;10.75;80.38;98725.16;2580811;28;20077;-83
2021/12/31 02:15:08;;;;;;;2.15;0.90;;;;;;;10.85;80.21;98725.81;2582468;28;20109;-80
2021/12/31 02:16:24;;;;;;;1.20;1.10;;;;;;;10.88;80.21;98717.88;2580323;28;20572;-80
2021/12/31 02:17:39;;;;;;;0.73;0.73;;;;;;;10.91;79.65;98725.66;2581609;28;20054;-80
2021/12/31 02:18:55;;;;;;;2.53;1.20;;;;;;;10.88;79.78;98717.88;2582861;28;20139;-80
2021/12/31 02:20:11;;;;;;;0.98;0.95;;;;;;;10.85;80.06;98724.03;2582781;28;20414;-79
2021/12/31 02:21:27;;;;;;;1.85;1.05;;;;;;;10.84;80.10;98722.31;2581841;28;21014;-81
2021/12/31 02:22:50;;;;;;;1.45;0.95;;;;;;;10.88;79.92;98723.97;2583008;28;20058;-80
2021/12/31 02:24:07;;;;;;;1.42;0.93;;;;;;;10.91;80.23;98723.03;2580768;28;20054;-80
2021/12/31 02:25:24;;;;;;;1.40;0.90;;;;;;;10.93;80.08;98725.63;2581212;28;20072;-81
2021/12/31 02:26:40;;;;;;;1.65;0.95;;;;;;;11.00;79.91;98729.78;2582387;28;20050;-79
2021/12/31 02:27:56;;;;;;;1.20;1.05;;;;;;;11.00;79.71;98727.19;2580737;28;20049;-81
2021/12/31 02:29:11;;;;;;;1.48;1.10;;;;;;;10.97;79.73;98732.50;2579832;28;20386;-80
2021/12/31 02:30:29;;;;;;;0.98;0.80;;;;;;;10.97;80.01;98722.03;2580123;28;20133;-80
2021/12/31 02:31:45;;;;;;;3.22;0.90;;;;;;;11.05;79.51;98727.94;2582074;28;20504;-81
2021/12/31 02:33:03;;;;;;;1.67;0.90;;;;;;;11.14;79.51;98727.69;2582560;28;20165;-82
2021/12/31 02:34:19;;;;;;;1.15;0.82;;;;;;;11.16;79.29;98723.25;2581836;28;20078;-80
2021/12/31 02:35:36;;;;;;;2.42;0.90;;;;;;;11.21;78.76;98725.75;2580718;28;20085;-80
2021/12/31 02:36:52;;;;;;;1.90;1.20;;;;;;;11.30;78.84;98730.78;2583012;28;20081;-80
2021/12/31 02:38:08;;;;;;;1.23;1.00;;;;;;;11.26;79.00;98736.13;2580290;28;20108;-80
2021/12/31 02:39:24;;;;;;;1.10;0.90;;;;;;;11.31;78.74;98734.25;2579920;28;20408;-81
2021/12/31 02:40:39;;;;;;;1.27;1.05;;;;;;;11.27;78.70;98728.25;2580893;28;20349;-80
2021/12/31 02:41:55;;;;;;;1.90;1.00;;;;;;;11.33;79.01;98739.47;2580197;28;20088;-80
2021/12/31 02:43:11;;;;;;;1.88;1.00;;;;;;;11.37;78.57;98730.59;2581428;28;20046;-80
2021/12/31 02:44:27;;;;;;;2.38;0.85;;;;;;;11.35;78.87;98735.91;2579865;28;20105;-80
2021/12/31 02:45:43;;;;;;;0.88;0.80;;;;;;;11.38;78.77;98735.81;2580186;28;20056;-80
2021/12/31 02:47:02;;;;;;;1.23;0.90;;;;;;;11.36;78.53;98731.50;2579850;28;20073;-81
2021/12/31 02:48:25;;;;;;;2.30;1.00;;;;;;;11.40;78.19;98736.63;2580227;28;20137;-81
2021/12/31 02:49:42;;;;;;;1.63;1.05;;;;;;;11.41;78.33;98733.09;2580241;28;20073;-80
2021/12/31 02:50:59;;;;;;;1.35;0.70;;;;;;;11.37;78.43;98733.22;2581678;28;20056;-80
2021/12/31 02:52:16;;;;;;;1.30;0.93;;;;;;;11.38;78.51;98732.31;2582033;28;20053;-80
2021/12/31 02:53:37;;;;;;;2.90;0.93;;;;;;;11.42;78.39;98731.34;2581152;28;20053;-80
2021/12/31 02:54:55;;;;;;;1.15;0.90;;;;;;;11.39;78.43;98727.03;2582123;28;20121;-80
2021/12/31 02:56:12;;;;;;;1.00;0.90;;;;;;;11.43;78.51;98736.53;2580473;28;20046;-80
2021/12/31 02:57:28;;;;;;;1.40;0.80;;;;;;;11.44;78.48;98730.41;2582710;28;20049;-81
2021/12/31 02:58:44;;;;;;;1.00;0.90;;;;;;;11.48;78.42;98730.34;2579990;28;20056;-79
2021/12/31 03:00:00;;;;;;;0.85;0.82;;;;;;;11.43;78.24;98730.44;2581444;28;20050;-79
2021/12/31 03:01:17;;;;;;;1.13;0.70;;;;;;;11.39;78.39;98732.28;2581733;28;20050;-80
2021/12/31 03:02:37;;;;;;;2.05;0.85;;;;;;;11.43;78.31;98733.91;2581414;28;20630;-81
2021/12/31 03:03:54;;;;;;;1.10;1.00;;;;;;;11.43;78.58;98726.06;2581317;28;20073;-79
2021/12/31 03:05:10;;;;;;;1.38;1.00;;;;;;;11.41;78.61;98732.25;2582657;28;20045;-80
2021/12/31 03:06:27;;;;;;;1.38;1.25;;;;;;;11.38;78.72;98729.69;2580196;28;20042;-80
2021/12/31 03:07:46;;;;;;;2.40;1.00;;;;;;;11.29;78.85;98734.31;2580917;28;20054;-81
2021/12/31 03:09:02;;;;;;;2.35;1.00;;;;;;;11.19;79.34;98730.19;2582488;28;20046;-79
2021/12/31 03:10:20;;;;;;;1.83;1.00;;;;;;;11.09;79.77;98728.69;2580544;28;20136;-80
2021/12/31 03:11:37;;;;;;;4.10;1.00;;;;;;;11.13;79.67;98730.38;2580961;28;20421;-80
2021/12/31 03:12:54;;;;;;;1.15;1.00;;;;;;;11.23;79.03;98734.44;2582217;28;20580;-81
2021/12/31 03:14:09;;;;;;;1.17;1.00;;;;;;;11.35;78.89;98719.31;2580967;28;20053;-82
2021/12/31 03:15:26;;;;;;;1.48;0.90;;;;;;;11.40;78.82;98730.53;2579702;28;20137;-80
2021/12/31 03:16:42;;;;;;;1.92;0.95;;;;;;;11.37;78.95;98736.72;2582470;28;20057;-80
2021/12/31 03:18:02;;;;;;;1.70;0.95;;;;;;;11.38;78.83;98724.44;2579780;28;20053;-79
2021/12/31 03:19:20;;;;;;;1.52;1.00;;;;;;;11.36;79.02;98729.75;2581191;28;20104;-80
2021/12/31 03:20:37;;;;;;;1.23;0.80;;;;;;;11.37;78.63;98735.84;2581494;28;20069;-80
2021/12/31 03:21:52;;;;;;;1.38;0.90;;;;;;;11.35;78.83;98740.28;2580528;28;20100;-81
2021/12/31 03:23:10;;;;;;;1.42;0.90;;;;;;;11.34;78.88;98736.81;2581872;28;20054;-80
2021/12/31 03:24:25;;;;;;;1.13;1.00;;;;;;;11.33;78.84;98735.09;2582360;28;20493;-81
2021/12/31 03:25:41;;;;;;;1.63;0.90;;;;;;;11.31;79.20;98731.63;2581523;28;20050;-80
2021/12/31 03:26:56;;;;;;;1.15;0.90;;;;;;;11.27;79.14;98733.47;2582028;28;20497;-80
2021/12/31 03:28:12;;;;;;;3.50;0.90;;;;;;;11.32;79.07;98729.88;2580519;28;20105;-79
2021/12/31 03:29:28;;;;;;;2.40;1.10;;;;;;;11.32;79.15;98730.75;2581563;28;20136;-80
2021/12/31 03:30:43;;;;;;;0.95;0.90;;;;;;;11.30;78.92;98733.41;2582373;28;20061;-80
2021/12/31 03:31:59;;;;;;;2.90;0.80;;;;;;;11.25;79.27;98735.28;2579428;28;20492;-80
2021/12/31 03:33:15;;;;;;;1.55;0.90;;;;;;;11.27;79.22;98740.47;2579352;28;20481;-84
2021/12/31 03:34:30;;;;;;;2.00;1.10;;;;;;;11.23;79.39;98738.84;2581350;28;20102;-81
2021/12/31 03:35:46;;;;;;;0.80;0.80;;;;;;;11.29;79.33;98741.28;2579296;28;20555;-80
2021/12/31 03:37:02;;;;;;;1.15;1.00;;;;;;;11.32;79.36;98738.63;2580431;28;20274;-80
2021/12/31 03:38:17;;;;;;;1.35;0.85;;;;;;;11.33;79.21;98736.84;2580849;28;20581;-79
2021/12/31 03:39:33;;;;;;;2.42;1.08;;;;;;;11.36;79.15;98736.75;2579942;28;20186;-80
2021/12/31 03:40:49;;;;;;;1.73;1.02;;;;;;;11.32;78.84;98733.38;2579762;28;20658;-80
2021/12/31 03:42:05;;;;;;;1.83;1.00;;;;;;;11.31;79.18;98736.88;2581514;28;20105;-79
2021/12/31 03:43:21;;;;;;;1.45;1.15;;;;;;;11.32;79.24;98727.25;2580706;28;20078;-81
2021/12/31 03:44:36;;;;;;;3.97;0.90;;;;;;;11.20;79.66;98731.91;2580122;28;20057;-80
2021/12/31 03:45:53;;;;;;;1.67;1.10;;;;;;;11.22;79.58;98731.88;2580954;28;20053;-80
2021/12/31 03:47:09;;;;;;;1.15;1.00;;;;;;;11.25;79.49;98726.56;2581915;28;20058;-80
2021/12/31 03:48:25;;;;;;;1.60;1.08;;;;;;;11.26;79.09;98728.28;2580370;28;20100;-80
2021/12/31 03:49:40;;;;;;;1.23;1.00;;;;;;;11.23;79.25;98738.84;2580080;28;20050;-80
2021/12/31 03:50:56;;;;;;;1.30;0.85;;;;;;;11.27;79.40;98730.00;2580692;28;20046;-80
2021/12/31 03:52:12;;;;;;;1.10;1.00;;;;;;;11.30;79.11;98733.41;2579657;28;20046;-80
2021/12/31 03:53:28;;;;;;;0.85;0.85;;;;;;;11.27;79.12;98730.00;2580554;28;20057;-84
2021/12/31 03:54:43;;;;;;;2.95;1.00;;;;;;;11.25;79.69;98727.44;2582246;28;20054;-80
2021/12/31 03:55:59;;;;;;;2.08;1.10;;;;;;;11.17;79.45;98729.38;2581936;28;20057;-80
2021/12/31 03:57:14;;;;;;;1.85;1.15;;;;;;;11.05;80.00;98724.44;2582427;28;20050;-80
2021/12/31 03:58:30;;;;;;;2.75;1.00;;;;;;;11.02;80.05;98728.00;2582602;28;20575;-80
2021/12/31 03:59:45;;;;;;;1.55;1.20;;;;;;;11.07;80.07;98722.63;2582469;28;20057;-81
2021/12/31 04:01:01;;;;;;;1.60;0.88;;;;;;;11.10;80.15;98715.56;2582028;28;20097;-80
2021/12/31 04:02:16;;;;;;;1.50;1.10;;;;;;;11.18;79.71;98714.53;2582367;28;20064;-80
2021/12/31 04:03:32;;;;;;;1.60;1.05;;;;;;;11.07;79.95;98718.28;2582920;28;20056;-80
2021/12/31 04:04:48;;;;;;;1.52;1.20;;;;;;;10.87;80.83;98722.25;2584240;28;20080;-80
2021/12/31 04:06:03;;;;;;;1.63;1.10;;;;;;;10.89;80.32;98719.59;2583711;28;20046;-80
2021/12/31 04:07:19;;;;;;;2.25;1.10;;;;;;;10.79;80.83;98718.09;2583958;28;20132;-80
2021/12/31 04:08:35;;;;;;;1.55;1.27;;;;;;;10.73;80.67;98724.34;2583540;28;20082;-82
2021/12/31 04:09:50;;;;;;;1.20;1.10;;;;;;;10.78;80.99;98719.88;2584334;28;20108;-81
2021/12/31 04:11:06;;;;;;;1.92;1.10;;;;;;;10.73;81.06;98727.81;2582157;28;20050;-81
2021/12/31 04:12:22;;;;;;;1.30;1.10;;;;;;;10.63;81.58;98735.94;2582273;28;20057;-81
2021/12/31 04:13:38;;;;;;;2.33;1.00;;;;;;;10.60;81.64;98731.63;2583335;28;20132;-80
2021/12/31 04:14:53;;;;;;;2.03;1.38;;;;;;;10.64;81.56;98732.44;2581092;28;20050;-80
2021/12/31 04:16:09;;;;;;;2.50;1.13;;;;;;;10.68;81.66;98737.53;2581802;28;20042;-80
2021/12/31 04:17:25;;;;;;;2.85;1.30;;;;;;;10.82;81.48;98736.34;2582480;28;20073;-80
2021/12/31 04:18:40;;;;;;;1.58;1.10;;;;;;;10.85;81.08;98739.75;2581653;28;20210;-81
2021/12/31 04:19:57;;;;;;;1.38;1.00;;;;;;;10.84;80.98;98735.41;2582657;28;20046;-81
2021/12/31 04:21:16;;;;;;;1.15;1.05;;;;;;;10.85;81.24;98739.75;2583338;28;20046;-80
2021/12/31 04:22:32;;;;;;;1.42;1.20;;;;;;;10.90;81.00;98728.31;2581866;28;20489;-80
2021/12/31 04:23:51;;;;;;;4.90;1.20;;;;;;;10.97;80.60;98737.75;2584166;28;20077;-80
2021/12/31 04:25:07;;;;;;;1.35;0.98;;;;;;;10.96;80.48;98736.03;2582469;28;20045;-80
2021/12/31 04:26:23;;;;;;;1.10;1.00;;;;;;;11.02;80.45;98739.34;2582443;28;20464;-80
2021/12/31 04:27:38;;;;;;;1.10;1.00;;;;;;;11.06;80.40;98737.53;2582757;28;20067;-80
2021/12/31 04:28:54;;;;;;;2.38;1.20;;;;;;;11.09;80.01;98737.44;2581012;28;20050;-80
2021/12/31 04:30:10;;;;;;;1.20;1.10;;;;;;;11.07;79.92;98730.50;2583060;28;20060;-80
2021/12/31 04:31:25;;;;;;;1.27;1.02;;;;;;;11.08;80.20;98732.22;2584124;28;20766;-80
2021/12/31 04:32:42;;;;;;;1.45;1.17;;;;;;;11.12;80.29;98739.13;2582108;28;20225;-79
2021/12/31 04:34:04;;;;;;;1.75;1.00;;;;;;;11.13;79.65;98739.06;2582663;28;20058;-80
2021/12/31 04:35:19;;;;;;;2.47;1.10;;;;;;;10.98;80.04;98737.72;2582263;28;20057;-80
2021/12/31 04:36:35;;;;;;;2.03;1.10;;;;;;;10.99;80.32;98733.31;2581837;28;20546;-79
2021/12/31 04:37:51;;;;;;;1.35;1.23;;;;;;;10.95;80.58;98731.69;2581390;28;20046;-80
2021/12/31 04:39:06;;;;;;;1.35;1.10;;;;;;;10.91;80.53;98728.28;2583275;28;20048;-80
2021/12/31 04:40:22;;;;;;;1.70;1.20;;;;;;;10.93;80.84;98728.25;2581282;28;20104;-80
2021/12/31 04:41:38;;;;;;;2.13;1.10;;;;;;;10.87;80.49;98737.09;2583462;28;20053;-83
2021/12/31 04:42:53;;;;;;;1.40;1.13;;;;;;;10.83;80.60;98736.31;2583270;28;20568;-82
2021/12/31 04:44:09;;;;;;;2.05;1.05;;;;;;;10.79;80.84;98739.91;2581439;28;20104;-80
2021/12/31 04:45:25;;;;;;;1.27;1.05;;;;;;;10.78;81.26;98746.06;2584021;28;20050;-80
2021/12/31 04:46:40;;;;;;;2.63;1.30;;;;;;;10.83;81.29;98740.72;2581420;28;20051;-81
2021/12/31 04:47:56;;;;;;;1.98;1.33;;;;;;;10.90;80.76;98746.66;2582278;28;20056;-80
2021/12/31 04:49:12;;;;;;;1.65;1.20;;;;;;;10.90;81.42;98749.28;2582177;28;20176;-80
2021/12/31 04:50:27;;;;;;;2.72;1.30;;;;;;;10.95;80.85;98744.78;2582315;28;20064;-80
2021/12/31 04:51:43;;;;;;;1.67;1.25;;;;;;;10.94;81.03;98741.28;2582233;28;20484;-80
2021/12/31 04:52:59;;;;;;;1.52;1.23;;;;;;;10.93;81.02;98746.56;2581876;28;20116;-79
2021/12/31 04:54:16;;;;;;;1.55;1.10;;;;;;;10.98;80.94;98740.34;2581100;28;20058;-80
2021/12/31 04:55:32;;;;;;;1.75;1.00;;;;;;;11.01;80.70;98742.88;2582100;28;20061;-79
2021/12/31 04:56:51;;;;;;;3.33;1.30;;;;;;;10.98;81.18;98742.06;2580201;28;20046;-80
2021/12/31 04:58:07;;;;;;;2.53;1.30;;;;;;;11.02;80.70;98739.34;2580463;28;20042;-78
2021/12/31 04:59:23;;;;;;;1.52;1.20;;;;;;;11.04;80.40;98747.19;2580267;28;20054;-82
2021/12/31 05:00:38;;;;;;;1.88;1.30;;;;;;;11.08;80.49;98743.56;2580867;28;20061;-79
2021/12/31 05:01:54;;;;;;;2.70;1.20;;;;;;;11.04;80.36;98741.94;2582081;28;20038;-79
2021/12/31 05:03:11;;;;;;;1.52;1.23;;;;;;;11.06;80.66;98744.50;2581903;28;20065;-79
2021/12/31 05:04:27;;;;;;;2.08;1.33;;;;;;;11.09;80.27;98741.78;2581206;28;20054;-80
2021/12/31 05:05:42;;;;;;;2.92;1.30;;;;;;;11.11;80.52;98753.13;2582696;28;20060;-85
2021/12/31 05:06:58;;;;;;;4.18;1.33;;;;;;;11.09;80.47;98768.00;2579599;28;20057;-82
2021/12/31 05:08:13;;;;;;;1.88;1.20;;;;;;;11.07;80.62;98752.34;2582114;28;20533;-79
2021/12/31 05:09:32;;;;;;;1.77;1.52;;;;;;;11.02;81.15;98751.56;2581463;28;20131;-79
2021/12/31 05:10:47;;;;;;;2.50;1.45;;;;;;;11.01;81.38;98745.50;2582834;28;20057;-80
2021/12/31 05:12:04;;;;;;;2.45;1.67;;;;;;;11.03;81.73;98745.44;2581033;28;20077;-79
2021/12/31 05:13:20;;;;;;;1.45;1.10;;;;;;;11.05;82.13;98741.03;2581683;28;20053;-80
2021/12/31 05:14:36;;;;;;;2.50;1.50;;;;;;;11.01;82.50;98747.22;2580443;28;20464;-79
2021/12/31 05:15:53;;;;;;;2.35;1.40;;;;;;;10.99;82.77;98743.78;2581806;28;20054;-79
2021/12/31 05:17:08;;;;;;;1.60;1.48;;;;;;;10.96;82.78;98744.72;2581198;28;20042;-78
2021/12/31 05:18:24;;;;;;;1.92;1.20;;;;;;;10.94;83.12;98754.38;2582438;28;20070;-80
2021/12/31 05:19:43;;;;;;;2.88;1.45;;;;;;;10.90;83.05;98755.38;2580567;28;20058;-79
2021/12/31 05:20:59;;;;;;;1.77;1.27;;;;;;;10.87;83.00;98745.81;2579949;28;20912;-79
2021/12/31 05:22:14;;;;;;;2.33;1.50;;;;;;;10.83;83.09;98743.34;2580919;28;20050;-79
2021/12/31 05:23:30;;;;;;;2.75;1.48;;;;;;;10.81;82.98;98748.59;2581154;28;20042;-80
2021/12/31 05:24:45;;;;;;;1.63;1.30;;;;;;;10.75;83.37;98748.72;2582101;28;20198;-79
2021/12/31 05:26:01;;;;;;;2.85;1.60;;;;;;;10.72;82.95;98748.81;2581765;28;20426;-79
2021/12/31 05:27:16;;;;;;;2.28;1.30;;;;;;;10.71;83.35;98745.34;2580695;28;20452;-80
2021/12/31 05:28:32;;;;;;;2.20;1.45;;;;;;;10.69;83.11;98747.13;2581541;28;20409;-79
2021/12/31 05:29:48;;;;;;;1.83;1.42;;;;;;;10.67;83.04;98745.44;2582362;28;20054;-80
2021/12/31 05:31:03;;;;;;;1.50;1.40;;;;;;;10.63;83.06;98756.91;2581058;28;20045;-79
2021/12/31 05:32:19;;;;;;;2.08;1.50;;;;;;;10.69;83.38;98765.47;2578887;28;20054;-79
2021/12/31 05:33:35;;;;;;;3.00;1.50;;;;;;;10.74;83.39;98754.84;2580405;28;20057;-80
2021/12/31 05:34:50;;;;;;;1.73;1.38;;;;;;;10.72;82.95;98761.91;2582169;28;20516;-80
2021/12/31 05:36:06;;;;;;;3.42;1.60;;;;;;;10.74;82.98;98750.50;2582535;28;20444;-80
2021/12/31 05:37:21;;;;;;;1.52;1.20;;;;;;;10.77;82.82;98756.56;2580704;28;20050;-80
2021/12/31 05:38:37;;;;;;;2.08;1.27;;;;;;;10.84;82.82;98755.53;2582771;28;20046;-80
2021/12/31 05:39:52;;;;;;;2.53;1.60;;;;;;;10.82;82.60;98755.56;2581510;28;20468;-80
2021/12/31 05:41:08;;;;;;;1.73;1.40;;;;;;;10.78;82.46;98750.41;2580144;28;20043;-80
2021/12/31 05:42:24;;;;;;;1.77;1.67;;;;;;;10.60;83.63;98750.81;2580526;28;20607;-80
2021/12/31 05:43:39;;;;;;;1.63;1.48;;;;;;;10.64;83.41;98750.75;2581594;28;20590;-80
2021/12/31 05:44:55;;;;;;;2.17;1.63;;;;;;;10.65;83.47;98742.00;2581557;28;20054;-78
2021/12/31 05:46:11;;;;;;;1.80;1.48;;;;;;;10.53;83.71;98743.13;2581745;28;20523;-78
2021/12/31 05:47:26;;;;;;;4.38;2.00;;;;;;;10.50;84.04;98745.81;2580403;28;20054;-79
2021/12/31 05:48:42;;;;;;;3.88;1.40;;;;;;;10.55;83.97;98754.44;2581534;28;20045;-80
2021/12/31 05:49:57;;;;;;;2.00;1.70;;;;;;;10.72;83.05;98748.81;2581316;28;20053;-79
2021/12/31 05:51:13;;;;;;;3.50;1.58;;;;;;;10.77;82.85;98757.44;2583289;28;20045;-80
2021/12/31 05:52:28;;;;;;;1.95;1.42;;;;;;;10.87;82.51;98753.66;2580348;28;20472;-78
2021/12/31 05:53:44;;;;;;;1.95;1.38;;;;;;;10.90;81.84;98763.22;2581209;28;20601;-79
2021/12/31 05:55:00;;;;;;;1.92;1.60;;;;;;;10.90;81.99;98757.97;2581669;28;20266;-80
2021/12/31 05:56:17;;;;;;;1.40;1.30;;;;;;;10.90;81.98;98754.53;2580200;28;20061;-79
2021/12/31 05:57:32;;;;;;;2.47;1.40;;;;;;;10.94;82.10;98758.78;2581377;28;20515;-80
2021/12/31 05:58:48;;;;;;;2.25;1.50;;;;;;;11.03;81.91;98753.28;2581715;28;20046;-79
2021/12/31 06:00:04;;;;;;;2.67;1.40;;;;;;;11.02;81.60;98759.44;2581476;28;20050;-79
2021/12/31 06:01:20;;;;;;;3.10;1.50;;;;;;;11.06;81.44;98758.47;2582167;28;20053;-79